Time;durP1;ratioP1;P1;durP2;ratioP2;P2;SDS_P1;SDS_P2;PMS_P1;PMS_P2;Temp;Humidity;BMP_temperature;BMP_pressure;BME280_temperature;BME280_humidity;BME280_pressure;Samples;Min_cycle;Max_cycle;Signal;HPM_P1;HPM_P2
2023/09/05 00:01:03;;;;;;;;;;;;;;;29.37;36.33;100628.31;5075788;28;1014;-27
2023/09/05 00:03:31;;;;;;;;;;;;;;;29.33;36.53;100610.75;5075961;28;1059;-31
2023/09/05 00:06:00;;;;;;;;;;;;;;;29.27;36.47;100614.28;5076175;28;1083;-28
2023/09/05 00:08:26;;;;;;;;;;;;;;;29.34;36.29;100618.69;5076020;28;1980;-26
2023/09/05 00:10:51;;;;;;;;;;;;;;;29.24;36.51;100610.13;5069526;28;1000;-28
2023/09/05 00:13:17;;;;;;;;;;;;;;;29.26;36.95;100609.91;5056323;28;984;-30
2023/09/05 00:15:43;;;;;;;;;;;;;;;29.21;37.01;100594.28;5069467;28;1122;-28
2023/09/05 00:18:08;;;;;;;;;;;;;;;29.24;37.03;100582.19;5068981;28;980;-31
2023/09/05 00:20:34;;;;;;;;;;;;;;;29.17;36.59;100584.84;5056181;28;1166;-29
2023/09/05 00:22:59;;;;;;;;;;;;;;;29.24;36.89;100588.44;5075637;28;2552;-27
2023/09/05 00:25:25;;;;;;;;;;;;;;;29.20;37.07;100582.59;5075803;28;1050;-27
2023/09/05 00:27:51;;;;;;;;;;;;;;;29.24;36.76;100574.06;5075856;28;1980;-28
2023/09/05 00:30:16;;;;;;;;;;;;;;;29.19;36.85;100574.66;5075866;28;1079;-28
2023/09/05 00:32:42;;;;;;;;;;;;;;;29.21;36.57;100568.00;5075932;28;983;-28
2023/09/05 00:35:13;;;;;;;;;;;;;;;29.24;36.91;100561.34;5056593;28;1170;-29
2023/09/05 00:37:39;;;;;;;;;;;;;;;29.22;36.97;100558.00;5062839;28;1055;-30
2023/09/05 00:40:04;;;;;;;;;;;;;;;29.24;36.50;100563.22;5057770;28;1035;-27
2023/09/05 00:42:30;;;;;;;;;;;;;;;29.16;36.51;100567.75;5075797;28;1048;-27
2023/09/05 00:44:56;;;;;;;;;;;;;;;29.28;36.06;100575.34;5075604;28;1039;-27
2023/09/05 00:47:28;;;;;;;;;;;;;;;29.23;36.46;100573.22;5075502;28;877;-26
2023/09/05 00:49:54;;;;;;;;;;;;;;;29.21;36.22;100586.97;5058250;28;1938;-27
2023/09/05 00:52:22;;;;;;;;;;;;;;;29.23;36.39;100594.06;5053891;28;2740;-25
2023/09/05 00:54:47;;;;;;;;;;;;;;;29.18;36.43;100595.50;5074711;28;1047;-27
2023/09/05 00:57:21;;;;;;;;;;;;;;;29.28;36.21;100602.44;5079525;28;1020;-26
2023/09/05 00:59:47;;;;;;;;;;;;;;;29.19;36.76;100590.91;5059792;28;1044;-26
2023/09/05 01:02:12;;;;;;;;;;;;;;;29.27;36.90;100595.31;5059114;28;1285;-29
2023/09/05 01:04:38;;;;;;;;;;;;;;;29.16;36.56;100594.84;5075788;28;1062;-25
2023/09/05 01:07:18;;;;;;;;;;;;;;;29.19;36.64;100585.50;5079953;28;944;-29
2023/09/05 01:09:44;;;;;;;;;;;;;;;29.18;37.06;100591.94;5074291;28;1913;-26
2023/09/05 01:12:09;;;;;;;;;;;;;;;29.24;36.70;100596.56;5074648;28;921;-29
2023/09/05 01:14:35;;;;;;;;;;;;;;;29.17;36.82;100599.25;5061062;28;1155;-30
2023/09/05 01:17:05;;;;;;;;;;;;;;;29.23;36.56;100594.88;5079262;28;1031;-27
2023/09/05 01:19:34;;;;;;;;;;;;;;;29.09;36.67;100594.00;5061059;28;1011;-27
2023/09/05 01:22:15;;;;;;;;;;;;;;;29.12;36.61;100579.22;5045009;28;2462;-30
2023/09/05 01:24:41;;;;;;;;;;;;;;;29.21;36.56;100602.41;5069704;28;848;-26
2023/09/05 01:27:07;;;;;;;;;;;;;;;29.27;36.57;100600.75;5055248;28;1110;-28
2023/09/05 01:29:38;;;;;;;;;;;;;;;29.20;36.42;100590.72;5060996;28;1910;-27
2023/09/05 01:32:04;;;;;;;;;;;;;;;29.23;36.57;100597.59;5079060;28;1099;-26
2023/09/05 01:34:30;;;;;;;;;;;;;;;29.13;36.65;100586.31;5078743;28;1096;-29
2023/09/05 01:36:56;;;;;;;;;;;;;;;29.13;36.88;100589.03;5060738;28;1094;-30
2023/09/05 01:39:22;;;;;;;;;;;;;;;29.15;36.68;100589.63;5078960;28;1108;-30
2023/09/05 01:41:48;;;;;;;;;;;;;;;29.13;36.81;100605.28;5078748;28;1214;-30
2023/09/05 01:44:13;;;;;;;;;;;;;;;29.09;36.71;100605.66;5078952;28;1040;-28
2023/09/05 01:46:39;;;;;;;;;;;;;;;29.17;36.77;100604.66;5078415;28;1261;-25
2023/09/05 01:49:05;;;;;;;;;;;;;;;29.11;36.97;100602.78;5086708;28;1984;-28
2023/09/05 01:51:31;;;;;;;;;;;;;;;29.07;36.63;100617.72;5074483;28;2327;-29
2023/09/05 01:53:56;;;;;;;;;;;;;;;29.06;37.13;100618.78;5058699;28;1178;-30
2023/09/05 01:56:22;;;;;;;;;;;;;;;29.19;36.72;100626.97;5072836;28;1044;-26
2023/09/05 01:58:47;;;;;;;;;;;;;;;29.24;36.86;100625.53;5059994;28;1138;-30
2023/09/05 02:01:13;;;;;;;;;;;;;;;29.16;37.30;100621.94;5045596;28;1222;-27
2023/09/05 02:03:38;;;;;;;;;;;;;;;29.24;36.82;100626.38;5066676;28;1091;-27
2023/09/05 02:06:04;;;;;;;;;;;;;;;29.24;36.64;100634.50;5078657;28;1055;-27
2023/09/05 02:08:30;;;;;;;;;;;;;;;29.38;36.08;100638.09;5060030;28;1959;-27
2023/09/05 02:10:55;;;;;;;;;;;;;;;29.21;36.51;100635.72;5077948;28;1067;-28
2023/09/05 02:13:21;;;;;;;;;;;;;;;29.32;36.36;100644.31;5078250;28;1047;-29
2023/09/05 02:15:46;;;;;;;;;;;;;;;29.34;36.27;100643.06;5059884;28;1130;-28
2023/09/05 02:18:12;;;;;;;;;;;;;;;29.43;36.13;100648.31;5078055;28;1118;-27
2023/09/05 02:20:38;;;;;;;;;;;;;;;29.66;35.69;100642.59;5059816;28;1214;-27
2023/09/05 02:23:04;;;;;;;;;;;;;;;29.49;36.14;100652.13;5071309;28;2629;-27
2023/09/05 02:25:30;;;;;;;;;;;;;;;29.35;36.35;100643.91;5077879;28;1126;-28
2023/09/05 02:27:56;;;;;;;;;;;;;;;29.41;36.49;100642.28;5059628;28;1969;-28
2023/09/05 02:30:21;;;;;;;;;;;;;;;29.49;36.35;100652.97;5077979;28;1091;-30
2023/09/05 02:32:50;;;;;;;;;;;;;;;29.60;35.43;100648.84;5077696;28;1127;-27
2023/09/05 02:35:16;;;;;;;;;;;;;;;29.46;35.64;100658.78;5066830;28;1036;-26
2023/09/05 02:37:42;;;;;;;;;;;;;;;29.58;36.06;100657.16;5077794;28;1062;-27
2023/09/05 02:40:07;;;;;;;;;;;;;;;29.47;36.28;100657.75;5063891;28;999;-29
2023/09/05 02:42:33;;;;;;;;;;;;;;;29.56;35.68;100672.78;5064749;28;996;-26
2023/09/05 02:44:59;;;;;;;;;;;;;;;29.55;35.54;100665.69;5077796;28;1019;-28
2023/09/05 02:47:24;;;;;;;;;;;;;;;29.54;36.25;100672.16;5064000;28;997;-28
2023/09/05 02:49:50;;;;;;;;;;;;;;;29.60;36.21;100675.09;5045966;28;1975;-27
2023/09/05 02:52:16;;;;;;;;;;;;;;;29.67;35.34;100673.28;5071359;28;2426;-29
2023/09/05 02:54:42;;;;;;;;;;;;;;;29.61;36.24;100674.94;5039368;28;1159;-26
2023/09/05 02:57:07;;;;;;;;;;;;;;;29.59;36.29;100679.72;5064369;28;940;-27
2023/09/05 02:59:33;;;;;;;;;;;;;;;29.37;36.80;100670.81;5059056;28;1143;-26
2023/09/05 03:01:59;;;;;;;;;;;;;;;29.32;36.50;100660.56;5077160;28;1287;-28
2023/09/05 03:04:26;;;;;;;;;;;;;;;29.13;36.61;100670.28;5077251;28;1054;-27
2023/09/05 03:06:52;;;;;;;;;;;;;;;29.17;36.50;100663.41;5055962;28;1544;-28
2023/09/05 03:09:17;;;;;;;;;;;;;;;29.11;36.65;100661.50;5040318;28;1969;-29
2023/09/05 03:11:43;;;;;;;;;;;;;;;29.11;36.30;100670.47;5064234;28;846;-28
2023/09/05 03:14:09;;;;;;;;;;;;;;;29.13;36.60;100676.50;5062923;28;1018;-28
2023/09/05 03:16:34;;;;;;;;;;;;;;;29.04;36.83;100677.72;5063816;28;1032;-28
2023/09/05 03:19:01;;;;;;;;;;;;;;;29.24;36.51;100677.00;5063732;28;1027;-27
2023/09/05 03:21:27;;;;;;;;;;;;;;;29.31;36.06;100696.84;5058961;28;1884;-26
2023/09/05 03:23:55;;;;;;;;;;;;;;;29.39;36.95;100704.81;5047426;28;1253;-26
2023/09/05 03:26:20;;;;;;;;;;;;;;;29.16;37.12;100705.91;5046667;28;1087;-29
2023/09/05 03:28:47;;;;;;;;;;;;;;;29.05;37.92;100707.31;5058712;28;1898;-26
2023/09/05 03:31:18;;;;;;;;;;;;;;;29.06;38.50;100695.44;5058733;28;1027;-29
2023/09/05 03:33:44;;;;;;;;;;;;;;;29.14;38.64;100685.47;5042069;28;1245;-29
2023/09/05 03:36:11;;;;;;;;;;;;;;;29.08;39.21;100684.38;5076102;28;983;-25
2023/09/05 03:38:36;;;;;;;;;;;;;;;29.10;39.33;100674.19;5058384;28;1038;-26
2023/09/05 03:41:02;;;;;;;;;;;;;;;29.17;39.11;100661.53;5076591;28;999;-27
2023/09/05 03:43:27;;;;;;;;;;;;;;;29.01;39.34;100653.75;5074856;28;1071;-29
2023/09/05 03:45:53;;;;;;;;;;;;;;;28.87;39.81;100650.06;5056672;28;1079;-26
2023/09/05 03:48:20;;;;;;;;;;;;;;;28.16;39.64;100658.78;5070749;28;1910;-25
2023/09/05 03:50:46;;;;;;;;;;;;;;;27.67;41.59;100641.38;5057897;28;2412;-31
2023/09/05 03:53:11;;;;;;;;;;;;;;;28.28;40.43;100631.25;5062694;28;1074;-30
2023/09/05 03:55:37;;;;;;;;;;;;;;;28.74;39.68;100630.00;5058156;28;1031;-31
2023/09/05 03:58:03;;;;;;;;;;;;;;;28.83;39.98;100634.22;5070381;28;1206;-27
2023/09/05 04:00:29;;;;;;;;;;;;;;;28.86;39.47;100633.00;5046115;28;1132;-29
2023/09/05 04:02:55;;;;;;;;;;;;;;;28.90;39.04;100636.97;5058225;28;921;-32
2023/09/05 04:05:21;;;;;;;;;;;;;;;28.91;38.48;100649.47;5057983;28;1090;-29
2023/09/05 04:07:47;;;;;;;;;;;;;;;28.86;38.46;100657.38;5075582;28;1898;-27
2023/09/05 04:10:12;;;;;;;;;;;;;;;28.68;38.81;100658.66;5045562;28;1044;-26
2023/09/05 04:12:38;;;;;;;;;;;;;;;28.54;39.08;100646.91;5075498;28;1099;-29
2023/09/05 04:15:04;;;;;;;;;;;;;;;28.63;38.79;100649.47;5075911;28;1139;-27
2023/09/05 04:17:30;;;;;;;;;;;;;;;28.63;38.84;100642.19;5075797;28;1063;-29
2023/09/05 04:19:55;;;;;;;;;;;;;;;28.69;38.77;100646.84;5076080;28;1135;-28
2023/09/05 04:22:23;;;;;;;;;;;;;;;28.65;38.76;100629.31;5074647;28;1800;-31
2023/09/05 04:24:55;;;;;;;;;;;;;;;28.58;38.77;100640.06;5063700;28;836;-30
2023/09/05 04:27:21;;;;;;;;;;;;;;;28.47;38.95;100641.44;5057822;28;1131;-31
2023/09/05 04:29:51;;;;;;;;;;;;;;;28.59;38.45;100649.84;5057773;28;1906;-28
2023/09/05 04:32:26;;;;;;;;;;;;;;;28.56;38.25;100660.25;5057661;28;1143;-32
2023/09/05 04:34:56;;;;;;;;;;;;;;;28.60;37.97;100669.63;5057968;28;1239;-31
2023/09/05 04:37:21;;;;;;;;;;;;;;;28.33;38.66;100675.66;5057605;28;1143;-30
2023/09/05 04:39:51;;;;;;;;;;;;;;;28.60;38.18;100683.16;5057454;28;1411;-30
2023/09/05 04:42:16;;;;;;;;;;;;;;;28.53;37.81;100672.28;5057437;28;1059;-30
2023/09/05 04:44:42;;;;;;;;;;;;;;;28.28;38.56;100679.94;5075585;28;1139;-26
2023/09/05 04:47:22;;;;;;;;;;;;;;;28.35;38.46;100667.34;5075198;28;1102;-30
2023/09/05 04:49:52;;;;;;;;;;;;;;;28.50;38.08;100669.97;5063169;28;1906;-32
2023/09/05 04:52:18;;;;;;;;;;;;;;;28.65;37.18;100667.19;5068537;28;1848;-31
2023/09/05 04:54:43;;;;;;;;;;;;;;;28.75;36.87;100661.44;5062890;28;1222;-31
2023/09/05 04:57:10;;;;;;;;;;;;;;;28.84;36.81;100646.72;5075319;28;1090;-28
2023/09/05 04:59:37;;;;;;;;;;;;;;;28.78;37.32;100642.09;5075115;28;1013;-31
2023/09/05 05:02:03;;;;;;;;;;;;;;;28.90;36.79;100619.88;5075237;28;1281;-27
2023/09/05 05:04:29;;;;;;;;;;;;;;;28.88;36.80;100617.38;5075214;28;1054;-29
2023/09/05 05:06:55;;;;;;;;;;;;;;;28.67;37.54;100593.91;5075324;28;1039;-29
2023/09/05 05:09:20;;;;;;;;;;;;;;;28.56;37.74;100595.31;5067273;28;1976;-28
2023/09/05 05:11:46;;;;;;;;;;;;;;;28.85;37.01;100580.72;5061449;28;1056;-29
2023/09/05 05:14:11;;;;;;;;;;;;;;;28.72;37.55;100586.88;5068874;28;1051;-28
2023/09/05 05:16:37;;;;;;;;;;;;;;;28.81;37.52;100592.97;5055445;28;1312;-28
2023/09/05 05:19:03;;;;;;;;;;;;;;;28.70;38.25;100598.94;5057324;28;1262;-31
2023/09/05 05:21:28;;;;;;;;;;;;;;;28.65;38.54;100604.94;5072353;28;2348;-29
2023/09/05 05:23:55;;;;;;;;;;;;;;;28.73;38.46;100623.72;5059023;28;1368;-27
2023/09/05 05:26:20;;;;;;;;;;;;;;;28.61;38.67;100636.16;5062299;28;1055;-29
2023/09/05 05:28:46;;;;;;;;;;;;;;;28.63;38.38;100628.66;5054895;28;1965;-28
2023/09/05 05:31:15;;;;;;;;;;;;;;;28.49;38.98;100630.44;5054913;28;1308;-29
2023/09/05 05:33:40;;;;;;;;;;;;;;;28.68;38.47;100628.91;5072175;28;1151;-29
2023/09/05 05:36:06;;;;;;;;;;;;;;;28.70;38.48;100640.38;5068521;28;983;-30
2023/09/05 05:38:31;;;;;;;;;;;;;;;28.99;37.94;100650.38;5062015;28;937;-29
2023/09/05 05:40:58;;;;;;;;;;;;;;;28.83;38.00;100655.88;5058816;28;1143;-27
2023/09/05 05:43:26;;;;;;;;;;;;;;;28.92;38.00;100678.22;5073281;28;1048;-27
2023/09/05 05:45:52;;;;;;;;;;;;;;;28.83;38.28;100687.50;5078661;28;1206;-27
2023/09/05 05:48:17;;;;;;;;;;;;;;;29.01;38.10;100680.81;5075196;28;1989;-28
2023/09/05 05:50:43;;;;;;;;;;;;;;;28.79;38.49;100695.22;5066757;28;1015;-29
2023/09/05 05:53:08;;;;;;;;;;;;;;;28.68;39.13;100696.56;5058719;28;1150;-31
2023/09/05 05:55:34;;;;;;;;;;;;;;;28.76;38.97;100711.81;5058305;28;1294;-27
2023/09/05 05:58:00;;;;;;;;;;;;;;;28.82;38.69;100713.78;5058380;28;1340;-30
2023/09/05 06:00:27;;;;;;;;;;;;;;;28.82;38.48;100726.47;5058254;28;1351;-32
2023/09/05 06:02:52;;;;;;;;;;;;;;;28.73;38.62;100729.31;5059609;28;1107;-32
2023/09/05 06:05:18;;;;;;;;;;;;;;;28.74;38.84;100727.44;5058217;28;1337;-29
2023/09/05 06:07:43;;;;;;;;;;;;;;;28.73;38.92;100728.47;5059511;28;1387;-27
2023/09/05 06:10:09;;;;;;;;;;;;;;;28.80;38.61;100739.34;5066812;28;1979;-29
2023/09/05 06:12:35;;;;;;;;;;;;;;;28.87;38.63;100737.53;5058566;28;1348;-34
2023/09/05 06:15:00;;;;;;;;;;;;;;;28.83;38.52;100747.91;5065379;28;1079;-29
2023/09/05 06:17:26;;;;;;;;;;;;;;;28.76;38.86;100767.84;5057698;28;1233;-32
2023/09/05 06:19:51;;;;;;;;;;;;;;;28.65;38.63;100772.75;5070327;28;1325;-30
2023/09/05 06:22:17;;;;;;;;;;;;;;;28.74;38.72;100784.28;5065944;28;1875;-29
2023/09/05 06:24:43;;;;;;;;;;;;;;;28.79;38.65;100783.69;5070624;28;1227;-31
2023/09/05 06:27:09;;;;;;;;;;;;;;;28.81;38.48;100785.16;5071475;28;1150;-33
2023/09/05 06:29:35;;;;;;;;;;;;;;;28.69;38.99;100794.84;5057676;28;1914;-29
2023/09/05 06:32:00;;;;;;;;;;;;;;;28.85;38.05;100808.13;5057648;28;1139;-30
2023/09/05 06:34:26;;;;;;;;;;;;;;;28.73;38.85;100817.78;5066071;28;1124;-34
2023/09/05 06:36:52;;;;;;;;;;;;;;;28.67;38.78;100821.28;5063641;28;1301;-33
2023/09/05 06:39:18;;;;;;;;;;;;;;;28.57;39.10;100825.13;5064730;28;1113;-30
2023/09/05 06:41:43;;;;;;;;;;;;;;;28.70;38.89;100834.41;5077564;28;1102;-33
2023/09/05 06:44:09;;;;;;;;;;;;;;;28.50;38.92;100832.31;5058606;28;1316;-30
2023/09/05 06:46:35;;;;;;;;;;;;;;;28.52;39.41;100835.69;5057709;28;1313;-29
2023/09/05 06:49:01;;;;;;;;;;;;;;;28.68;38.22;100833.75;5056731;28;2233;-30
2023/09/05 06:51:26;;;;;;;;;;;;;;;28.59;39.06;100830.34;5069747;28;1862;-30
2023/09/05 06:53:52;;;;;;;;;;;;;;;28.69;38.86;100836.31;5058977;28;1409;-32
2023/09/05 06:56:19;;;;;;;;;;;;;;;28.68;38.72;100829.19;5065565;28;1076;-34
2023/09/05 06:58:45;;;;;;;;;;;;;;;28.65;38.76;100826.88;5076623;28;1050;-30
2023/09/05 07:01:13;;;;;;;;;;;;;;;28.69;39.05;100835.47;5070873;28;1269;-32
2023/09/05 07:03:38;;;;;;;;;;;;;;;28.76;38.79;100830.13;5066947;28;1064;-33
2023/09/05 07:06:04;;;;;;;;;;;;;;;28.63;38.78;100826.22;5067879;28;1216;-29
2023/09/05 07:08:30;;;;;;;;;;;;;;;28.44;39.28;100836.66;5069711;28;1910;-31
2023/09/05 07:10:56;;;;;;;;;;;;;;;28.58;39.12;100842.19;5071256;28;1136;-30
2023/09/05 07:13:23;;;;;;;;;;;;;;;28.57;39.03;100832.41;5076698;28;1266;-34
2023/09/05 07:15:49;;;;;;;;;;;;;;;28.42;38.98;100830.59;5068003;28;1050;-32
2023/09/05 07:18:14;;;;;;;;;;;;;;;28.59;38.44;100835.78;5073850;28;987;-28
2023/09/05 07:20:40;;;;;;;;;;;;;;;28.62;38.32;100838.09;5067921;28;1023;-31
2023/09/05 07:23:05;;;;;;;;;;;;;;;28.60;38.28;100841.00;5060648;28;2707;-32
2023/09/05 07:25:31;;;;;;;;;;;;;;;28.50;38.39;100832.31;5061415;28;1072;-33
2023/09/05 07:27:57;;;;;;;;;;;;;;;28.67;37.73;100832.09;5071827;28;1919;-31
2023/09/05 07:30:23;;;;;;;;;;;;;;;28.58;37.79;100832.22;5057129;28;1127;-29
2023/09/05 07:32:49;;;;;;;;;;;;;;;28.71;37.28;100823.41;5072493;28;1163;-30
2023/09/05 07:35:14;;;;;;;;;;;;;;;28.64;37.77;100836.03;5082456;28;1095;-30
2023/09/05 07:37:41;;;;;;;;;;;;;;;28.64;37.30;100844.16;5075139;28;996;-31
2023/09/05 07:40:07;;;;;;;;;;;;;;;28.88;36.51;100841.28;5069034;28;1343;-30
2023/09/05 07:42:33;;;;;;;;;;;;;;;28.57;37.63;100837.81;5072777;28;1457;-26
2023/09/05 07:45:00;;;;;;;;;;;;;;;28.76;37.10;100841.75;5076966;28;1293;-30
2023/09/05 07:47:26;;;;;;;;;;;;;;;28.89;36.91;100837.53;5068990;28;2306;-28
2023/09/05 07:49:51;;;;;;;;;;;;;;;28.82;37.26;100829.34;5076363;28;1901;-29
2023/09/05 07:52:17;;;;;;;;;;;;;;;28.68;37.34;100810.25;5077414;28;1098;-28
2023/09/05 07:54:42;;;;;;;;;;;;;;;28.72;37.61;100797.16;5076685;28;1134;-26
2023/09/05 07:57:08;;;;;;;;;;;;;;;28.72;37.38;100789.06;5076958;28;1098;-29
2023/09/05 07:59:33;;;;;;;;;;;;;;;28.75;37.31;100787.81;5076570;28;1453;-29
2023/09/05 08:02:00;;;;;;;;;;;;;;;28.65;37.08;100788.97;5068404;28;1328;-28
2023/09/05 08:04:26;;;;;;;;;;;;;;;28.68;37.16;100794.00;5062965;28;1324;-29
2023/09/05 08:06:51;;;;;;;;;;;;;;;28.51;37.44;100784.47;5074347;28;1137;-28
2023/09/05 08:09:17;;;;;;;;;;;;;;;28.67;36.82;100786.94;5060605;28;1968;-27
2023/09/05 08:11:43;;;;;;;;;;;;;;;28.98;36.29;100792.25;5071937;28;1167;-29
2023/09/05 08:14:08;;;;;;;;;;;;;;;29.01;36.27;100797.25;5076458;28;1075;-28
2023/09/05 08:16:34;;;;;;;;;;;;;;;28.96;35.72;100792.41;5064814;28;1324;-31
2023/09/05 08:19:00;;;;;;;;;;;;;;;28.70;36.50;100794.66;5075554;28;1056;-26
2023/09/05 08:21:26;;;;;;;;;;;;;;;28.92;36.11;100796.53;5076133;28;1110;-29
2023/09/05 08:23:52;;;;;;;;;;;;;;;28.82;35.87;100803.09;5076390;28;1161;-30
2023/09/05 08:26:18;;;;;;;;;;;;;;;28.56;36.41;100811.78;5076009;28;1320;-30
2023/09/05 08:28:45;;;;;;;;;;;;;;;28.79;36.33;100819.75;5058199;28;1897;-30
2023/09/05 08:31:11;;;;;;;;;;;;;;;28.75;35.86;100804.91;5067870;28;1171;-28
2023/09/05 08:33:37;;;;;;;;;;;;;;;28.70;36.24;100818.16;5058694;28;1170;-32
2023/09/05 08:36:05;;;;;;;;;;;;;;;28.68;35.61;100812.09;5076636;28;1130;-31
2023/09/05 08:38:31;;;;;;;;;;;;;;;28.67;36.04;100802.31;5062806;28;1205;-32
2023/09/05 08:41:00;;;;;;;;;;;;;;;28.79;36.30;100797.25;5062488;28;1564;-31
2023/09/05 08:43:26;;;;;;;;;;;;;;;28.84;36.14;100786.66;5073571;28;1067;-30
2023/09/05 08:45:51;;;;;;;;;;;;;;;28.73;36.64;100772.63;5048036;28;1215;-30
2023/09/05 08:48:17;;;;;;;;;;;;;;;28.83;36.40;100764.16;5044224;28;1902;-28
2023/09/05 08:50:43;;;;;;;;;;;;;;;28.90;36.28;100756.09;5063116;28;2850;-29
2023/09/05 08:53:11;;;;;;;;;;;;;;;28.92;36.48;100751.34;5073750;28;1691;-32
2023/09/05 08:55:40;;;;;;;;;;;;;;;28.72;37.41;100752.00;5074823;28;1886;-30
2023/09/05 08:58:10;;;;;;;;;;;;;;;29.02;36.62;100764.56;5064158;28;2044;-29
2023/09/05 09:00:36;;;;;;;;;;;;;;;29.01;37.04;100764.75;5052728;28;1815;-30
2023/09/05 09:03:03;;;;;;;;;;;;;;;29.01;36.81;100762.06;5070583;28;2069;-32
2023/09/05 09:05:28;;;;;;;;;;;;;;;29.06;37.33;100763.13;5069881;28;1925;-28
2023/09/05 09:07:57;;;;;;;;;;;;;;;29.02;37.30;100761.88;5067964;28;1024;-30
2023/09/05 09:10:23;;;;;;;;;;;;;;;29.05;37.57;100772.31;5062565;28;1098;-28
2023/09/05 09:12:51;;;;;;;;;;;;;;;29.08;37.18;100780.03;5075160;28;1234;-29
2023/09/05 09:15:17;;;;;;;;;;;;;;;29.10;36.97;100790.66;5059360;28;1111;-28
2023/09/05 09:17:47;;;;;;;;;;;;;;;29.05;38.09;100798.53;5072853;28;1036;-29
2023/09/05 09:20:13;;;;;;;;;;;;;;;28.93;38.01;100793.63;5072242;28;1309;-28
2023/09/05 09:22:39;;;;;;;;;;;;;;;28.94;37.53;100789.91;5059319;28;1301;-30
2023/09/05 09:25:14;;;;;;;;;;;;;;;29.09;37.94;100797.94;5075467;28;1100;-28
2023/09/05 09:27:41;;;;;;;;;;;;;;;29.01;37.70;100806.22;5063901;28;868;-30
2023/09/05 09:30:10;;;;;;;;;;;;;;;29.07;37.56;100810.88;5073385;28;1979;-32
2023/09/05 09:32:36;;;;;;;;;;;;;;;28.99;37.80;100815.56;5079343;28;1044;-29
2023/09/05 09:35:06;;;;;;;;;;;;;;;28.95;37.87;100828.63;5078732;28;2384;-29
2023/09/05 09:37:32;;;;;;;;;;;;;;;29.09;37.71;100830.44;5079348;28;1103;-27
2023/09/05 09:39:58;;;;;;;;;;;;;;;29.08;37.51;100834.19;5066236;28;868;-28
2023/09/05 09:42:24;;;;;;;;;;;;;;;29.15;37.75;100836.97;5079093;28;1103;-29
2023/09/05 09:44:50;;;;;;;;;;;;;;;29.14;38.00;100838.00;5078802;28;1127;-29
2023/09/05 09:47:15;;;;;;;;;;;;;;;29.06;37.43;100846.28;5059222;28;1122;-30
2023/09/05 09:49:42;;;;;;;;;;;;;;;29.09;37.66;100843.16;5053756;28;1981;-30
2023/09/05 09:52:10;;;;;;;;;;;;;;;29.13;37.55;100852.56;5054706;28;1103;-31
2023/09/05 09:54:36;;;;;;;;;;;;;;;29.17;36.71;100848.44;5057194;28;1298;-33
2023/09/05 09:57:05;;;;;;;;;;;;;;;29.21;37.20;100843.50;5078420;28;1039;-28
2023/09/05 09:59:35;;;;;;;;;;;;;;;29.31;36.65;100845.84;5061404;28;1086;-29
2023/09/05 10:02:12;;;;;;;;;;;;;;;29.33;36.91;100843.78;5078688;28;1457;-29
2023/09/05 10:04:37;;;;;;;;;;;;;;;29.31;36.86;100843.16;5076763;28;1769;-30
2023/09/05 10:07:06;;;;;;;;;;;;;;;29.04;39.07;100837.50;5048817;28;1015;-31
2023/09/05 10:09:38;;;;;;;;;;;;;;;29.07;38.73;100829.81;5074714;28;1918;-30
2023/09/05 10:12:06;;;;;;;;;;;;;;;29.02;39.09;100834.97;5060836;28;1134;-32
2023/09/05 10:14:32;;;;;;;;;;;;;;;29.11;38.37;100835.69;5071486;28;1348;-31
2023/09/05 10:16:58;;;;;;;;;;;;;;;29.10;38.76;100834.00;5060354;28;972;-28
2023/09/05 10:19:24;;;;;;;;;;;;;;;29.13;38.74;100844.44;5059631;28;1300;-29
2023/09/05 10:21:50;;;;;;;;;;;;;;;29.18;38.67;100835.72;5058174;28;1345;-29
2023/09/05 10:24:17;;;;;;;;;;;;;;;29.08;38.77;100830.63;5057954;28;1324;-31
2023/09/05 10:26:43;;;;;;;;;;;;;;;29.05;39.04;100847.28;5041041;28;1317;-32
2023/09/05 10:29:27;;;;;;;;;;;;;;;29.11;39.10;100843.81;5040069;28;1918;-31
2023/09/05 10:31:52;;;;;;;;;;;;;;;29.10;39.07;100847.53;5068947;28;1114;-28
2023/09/05 10:34:18;;;;;;;;;;;;;;;29.18;38.68;100850.13;5063624;28;2451;-28
2023/09/05 10:36:46;;;;;;;;;;;;;;;29.16;38.71;100859.47;5065237;28;1026;-31
2023/09/05 10:39:18;;;;;;;;;;;;;;;29.17;39.02;100856.59;5077069;28;1312;-32
2023/09/05 10:41:44;;;;;;;;;;;;;;;29.15;39.04;100850.50;5070252;28;1046;-28
2023/09/05 10:44:09;;;;;;;;;;;;;;;29.20;38.94;100864.31;5072699;28;1281;-29
2023/09/05 10:46:35;;;;;;;;;;;;;;;29.14;39.03;100859.69;5069984;28;1031;-30
2023/09/05 10:49:16;;;;;;;;;;;;;;;29.12;38.81;100866.31;5057456;28;1917;-30
2023/09/05 10:52:00;;;;;;;;;;;;;;;29.06;39.03;100855.22;5050350;28;1053;-29
2023/09/05 10:54:26;;;;;;;;;;;;;;;29.08;38.87;100850.44;5077681;28;1126;-30
2023/09/05 10:56:51;;;;;;;;;;;;;;;29.10;39.00;100847.53;5077574;28;964;-30
2023/09/05 10:59:26;;;;;;;;;;;;;;;29.09;38.89;100833.16;5064646;28;1170;-29
2023/09/05 11:01:56;;;;;;;;;;;;;;;29.18;39.13;100833.88;5076841;28;1117;-29
2023/09/05 11:04:26;;;;;;;;;;;;;;;29.13;39.21;100825.47;5071249;28;2367;-28
2023/09/05 11:07:13;;;;;;;;;;;;;;;29.06;39.26;100827.31;5063671;28;1047;-27
2023/09/05 11:09:49;;;;;;;;;;;;;;;29.18;39.08;100827.59;5065844;28;2002;-28
2023/09/05 11:12:15;;;;;;;;;;;;;;;29.07;38.94;100832.53;5076800;28;1126;-30
2023/09/05 11:14:41;;;;;;;;;;;;;;;29.21;38.90;100836.19;5057541;28;1320;-29
2023/09/05 11:17:10;;;;;;;;;;;;;;;29.25;38.58;100839.34;5073502;28;849;-33
2023/09/05 11:19:38;;;;;;;;;;;;;;;29.17;39.17;100843.03;5075467;28;1090;-32
2023/09/05 11:22:11;;;;;;;;;;;;;;;29.17;39.03;100850.31;5065374;28;1000;-30
2023/09/05 11:24:46;;;;;;;;;;;;;;;29.22;39.21;100850.56;5077152;28;1042;-28
2023/09/05 11:27:15;;;;;;;;;;;;;;;29.23;38.76;100854.94;5076665;28;1192;-31
2023/09/05 11:29:41;;;;;;;;;;;;;;;29.16;39.38;100849.47;5059405;28;1922;-34
2023/09/05 11:32:07;;;;;;;;;;;;;;;29.21;38.62;100841.59;5056133;28;1134;-32
2023/09/05 11:34:33;;;;;;;;;;;;;;;29.22;39.19;100845.16;5074269;28;2339;-27
2023/09/05 11:36:59;;;;;;;;;;;;;;;29.28;39.47;100852.50;5062743;28;1047;-30
2023/09/05 11:39:27;;;;;;;;;;;;;;;29.20;39.19;100839.94;5058773;28;1282;-30
2023/09/05 11:41:57;;;;;;;;;;;;;;;29.09;39.90;100841.28;5076866;28;1193;-28
2023/09/05 11:44:32;;;;;;;;;;;;;;;29.20;39.48;100849.91;5076505;28;1154;-29
2023/09/05 11:46:58;;;;;;;;;;;;;;;29.16;39.31;100841.34;5070887;28;1182;-30
2023/09/05 11:49:23;;;;;;;;;;;;;;;29.03;39.85;100842.06;5068209;28;1913;-33
2023/09/05 11:51:49;;;;;;;;;;;;;;;29.18;39.36;100836.56;5075977;28;1146;-29
2023/09/05 11:54:15;;;;;;;;;;;;;;;29.11;39.42;100835.69;5065217;28;1090;-31
2023/09/05 11:56:41;;;;;;;;;;;;;;;29.15;39.47;100841.53;5044239;28;1187;-29
2023/09/05 11:59:07;;;;;;;;;;;;;;;29.24;39.38;100836.84;5076200;28;1038;-28
2023/09/05 12:01:32;;;;;;;;;;;;;;;29.19;39.63;100834.72;5058060;28;1219;-29
2023/09/05 12:04:04;;;;;;;;;;;;;;;29.13;39.69;100841.72;5076515;28;1059;-31
2023/09/05 12:06:35;;;;;;;;;;;;;;;29.10;39.46;100831.28;5075449;28;2566;-29
2023/09/05 12:09:02;;;;;;;;;;;;;;;29.17;39.25;100842.19;5075669;28;1895;-33
2023/09/05 12:11:27;;;;;;;;;;;;;;;29.15;39.98;100847.81;5062751;28;1312;-28
2023/09/05 12:13:56;;;;;;;;;;;;;;;29.14;39.83;100832.59;5076274;28;1075;-28
2023/09/05 12:16:22;;;;;;;;;;;;;;;29.04;39.66;100840.19;5070460;28;1038;-30
2023/09/05 12:18:48;;;;;;;;;;;;;;;29.15;39.43;100842.38;5067624;28;1000;-30
2023/09/05 12:21:14;;;;;;;;;;;;;;;29.17;39.50;100834.91;5076051;28;1142;-29
2023/09/05 12:23:39;;;;;;;;;;;;;;;29.08;39.78;100845.03;5062303;28;1305;-32
2023/09/05 12:26:06;;;;;;;;;;;;;;;29.00;39.65;100845.16;5056361;28;1317;-30
2023/09/05 12:28:31;;;;;;;;;;;;;;;29.07;40.19;100842.53;5068816;28;1976;-32
2023/09/05 12:31:07;;;;;;;;;;;;;;;28.82;40.46;100841.00;5071669;28;1290;-26
2023/09/05 12:33:33;;;;;;;;;;;;;;;28.98;39.99;100838.28;5062557;28;1340;-28
2023/09/05 12:35:58;;;;;;;;;;;;;;;29.09;39.89;100832.34;5061022;28;2359;-25
2023/09/05 12:38:24;;;;;;;;;;;;;;;28.84;40.17;100838.94;5055398;28;1332;-29
2023/09/05 12:40:49;;;;;;;;;;;;;;;29.09;39.90;100843.97;5050533;28;1318;-28
2023/09/05 12:43:16;;;;;;;;;;;;;;;28.96;39.76;100850.09;5055635;28;1336;-30
2023/09/05 12:45:42;;;;;;;;;;;;;;;29.01;40.10;100849.53;5054844;28;1351;-30